createdAt,value
2022-11-29T00:01:11.042Z,24.85
2022-11-29T00:03:37.640Z,25.00
2022-11-29T00:06:08.965Z,25.63
2022-11-29T00:08:36.544Z,25.50
2022-11-29T00:11:08.347Z,27.70
2022-11-29T00:13:35.495Z,27.30
2022-11-29T00:16:09.802Z,22.10
2022-11-29T00:18:36.775Z,28.48
2022-11-29T00:21:08.016Z,23.65
2022-11-29T00:23:35.597Z,31.00
2022-11-29T00:26:08.723Z,33.08
2022-11-29T00:28:36.102Z,32.00
2022-11-29T00:31:19.069Z,27.90
2022-11-29T00:33:45.644Z,35.88
2022-11-29T00:36:12.908Z,14.50
2022-11-29T00:38:39.524Z,26.45
2022-11-29T00:41:06.933Z,32.83
2022-11-29T00:43:33.754Z,28.48
2022-11-29T00:46:00.511Z,24.20
2022-11-29T00:48:27.066Z,31.27
2022-11-29T00:50:53.681Z,33.92
2022-11-29T00:53:20.228Z,27.80
2022-11-29T00:55:51.157Z,31.33
2022-11-29T00:58:18.299Z,29.23
2022-11-29T01:00:44.984Z,22.42
2022-11-29T01:03:11.675Z,30.70
2022-11-29T01:05:38.227Z,31.45
2022-11-29T01:08:04.948Z,25.05
2022-11-29T01:10:31.710Z,26.63
2022-11-29T01:12:58.217Z,27.98
2022-11-29T01:15:24.819Z,25.65
2022-11-29T01:17:51.486Z,27.02
2022-11-29T01:20:18.284Z,32.03
2022-11-29T01:22:45.129Z,34.53
2022-11-29T01:25:13.118Z,37.38
2022-11-29T01:27:39.675Z,32.80
2022-11-29T01:30:08.270Z,23.40
2022-11-29T01:32:35.919Z,32.92
2022-11-29T01:35:02.785Z,32.70
2022-11-29T01:37:29.721Z,31.20
2022-11-29T01:39:56.446Z,30.17
2022-11-29T01:42:23.186Z,33.85
2022-11-29T01:44:49.652Z,31.08
2022-11-29T01:47:18.570Z,33.22
2022-11-29T01:49:49.433Z,32.47
2022-11-29T01:52:32.731Z,28.90
2022-11-29T01:55:03.277Z,31.67
2022-11-29T01:57:31.275Z,34.58
2022-11-29T02:00:03.336Z,32.42
2022-11-29T02:02:35.711Z,33.88
2022-11-29T02:05:03.070Z,30.13
2022-11-29T02:07:29.668Z,31.05
2022-11-29T02:09:56.152Z,31.83
2022-11-29T02:12:58.122Z,31.88
2022-11-29T02:15:54.013Z,33.03
2022-11-29T02:18:41.407Z,25.85
2022-11-29T02:21:14.247Z,37.42
2022-11-29T02:24:34.582Z,37.85
2022-11-29T02:27:16.223Z,31.85
2022-11-29T02:30:01.072Z,38.83
2022-11-29T02:32:54.364Z,34.20
2022-11-29T02:35:41.786Z,29.17
2022-11-29T02:38:14.205Z,36.78
2022-11-29T02:41:22.688Z,40.78
2022-11-29T02:44:14.019Z,36.42
2022-11-29T02:47:08.071Z,22.30
2022-11-29T02:49:53.117Z,37.85
2022-11-29T02:52:30.193Z,38.28
2022-11-29T02:55:21.145Z,37.70
2022-11-29T02:58:02.402Z,37.78
2022-11-29T03:00:29.801Z,27.35
2022-11-29T03:03:21.170Z,40.20
2022-11-29T03:06:01.198Z,38.28
2022-11-29T03:08:36.873Z,36.92
2022-11-29T03:11:21.544Z,43.40
2022-11-29T03:14:04.841Z,40.08
2022-11-29T03:16:42.857Z,41.20
2022-11-29T03:19:34.388Z,42.65
2022-11-29T03:22:39.099Z,43.58
2022-11-29T03:25:20.545Z,43.75
2022-11-29T03:28:01.134Z,41.97
2022-11-29T03:30:29.235Z,36.42
2022-11-29T03:33:21.517Z,34.28
2022-11-29T03:35:58.243Z,41.90
2022-11-29T03:38:40.566Z,45.78
2022-11-29T03:41:10.067Z,52.90
2022-11-29T03:46:21.243Z,41.13
2022-11-29T03:48:53.227Z,40.53
2022-11-29T03:51:32.754Z,41.72
2022-11-29T03:54:08.194Z,37.55
2022-11-29T03:56:37.917Z,46.78
2022-11-29T03:59:10.690Z,39.70
2022-11-29T04:01:49.314Z,40.67
2022-11-29T04:04:41.805Z,41.83
2022-11-29T04:07:35.473Z,47.75
2022-11-29T04:10:20.410Z,43.72
2022-11-29T04:13:08.578Z,43.90
2022-11-29T04:16:13.472Z,40.83
2022-11-29T04:18:48.702Z,39.30
2022-11-29T04:21:42.583Z,42.47
2022-11-29T04:24:46.814Z,36.03
2022-11-29T04:28:02.978Z,25.30
2022-11-29T04:30:53.185Z,40.88
2022-11-29T04:33:22.791Z,44.85
2022-11-29T04:38:27.333Z,41.80
2022-11-29T04:40:59.764Z,38.88
2022-11-29T04:43:44.503Z,41.97
2022-11-29T04:46:38.315Z,25.48
2022-11-29T04:49:40.373Z,40.42
2022-11-29T04:52:23.823Z,38.05
2022-11-29T04:55:05.265Z,30.30
2022-11-29T04:57:47.535Z,29.60
2022-11-29T05:00:19.353Z,38.17
2022-11-29T05:03:07.333Z,29.83
2022-11-29T05:08:59.180Z,26.98
2022-11-29T05:14:39.361Z,47.30
2022-11-29T05:17:33.380Z,35.30
2022-11-29T05:20:08.798Z,31.80
2022-11-29T05:22:54.006Z,30.05
2022-11-29T05:25:44.769Z,26.38
2022-11-29T05:28:24.604Z,29.83
2022-11-29T05:31:03.950Z,27.23
2022-11-29T05:33:55.304Z,33.40
2022-11-29T05:36:42.509Z,25.50
2022-11-29T05:39:30.696Z,33.28
2022-11-29T05:42:07.953Z,35.78
2022-11-29T05:44:41.937Z,30.05
2022-11-29T05:47:10.204Z,31.52
2022-11-29T05:49:42.417Z,38.35
2022-11-29T05:52:30.703Z,37.00
2022-11-29T05:55:25.237Z,39.50
2022-11-29T05:58:42.264Z,36.05
2022-11-29T06:01:25.662Z,33.60
2022-11-29T06:04:09.122Z,22.77
2022-11-29T06:07:24.099Z,28.42
2022-11-29T06:10:02.058Z,20.80
2022-11-29T06:12:35.198Z,25.63
2022-11-29T06:15:30.083Z,33.60
2022-11-29T06:18:08.744Z,31.35
2022-11-29T06:20:44.337Z,20.45
2022-11-29T06:23:29.537Z,19.75
2022-11-29T06:26:11.298Z,21.45
2022-11-29T06:28:57.521Z,29.45
2022-11-29T06:31:31.290Z,34.70
2022-11-29T06:34:10.234Z,30.33
2022-11-29T06:36:51.054Z,23.17
2022-11-29T06:39:17.822Z,16.92
2022-11-29T06:41:44.432Z,30.08
2022-11-29T06:44:11.378Z,36.35
2022-11-29T06:46:46.389Z,24.00
2022-11-29T06:49:40.039Z,23.30
2022-11-29T06:52:20.582Z,31.90
2022-11-29T06:54:59.816Z,17.17
2022-11-29T06:57:58.481Z,35.15
2022-11-29T07:00:42.571Z,24.50
2022-11-29T07:03:21.414Z,25.40
2022-11-29T07:05:48.241Z,28.23
2022-11-29T07:08:20.818Z,38.90
2022-11-29T07:10:50.447Z,34.25
2022-11-29T07:13:18.786Z,28.98
2022-11-29T07:16:08.361Z,28.08
2022-11-29T07:19:13.742Z,34.15
2022-11-29T07:21:55.314Z,30.77
2022-11-29T07:24:43.511Z,24.70
2022-11-29T07:27:44.738Z,27.90
2022-11-29T07:30:35.654Z,34.38
2022-11-29T07:33:28.813Z,29.75
2022-11-29T07:36:20.094Z,13.95
2022-11-29T07:39:45.289Z,31.83
2022-11-29T07:42:24.629Z,32.85
2022-11-29T07:45:33.398Z,28.48
2022-11-29T07:48:00.313Z,37.08
2022-11-29T07:50:27.866Z,29.88
2022-11-29T07:52:55.564Z,27.35
2022-11-29T07:55:25.674Z,31.77
2022-11-29T07:57:53.276Z,27.00
2022-11-29T08:00:20.925Z,32.35
2022-11-29T08:02:49.801Z,29.85
2022-11-29T08:05:17.183Z,31.00
2022-11-29T08:07:44.127Z,24.70
2022-11-29T08:10:15.560Z,31.05
2022-11-29T08:12:47.956Z,28.67
2022-11-29T08:15:15.195Z,31.17
2022-11-29T08:17:41.727Z,20.05
2022-11-29T08:20:10.322Z,28.95
2022-11-29T08:22:36.956Z,28.33
2022-11-29T08:25:04.685Z,31.42
2022-11-29T08:27:31.793Z,31.35
2022-11-29T08:29:58.398Z,25.75
2022-11-29T08:32:25.816Z,24.65
2022-11-29T08:34:52.867Z,29.05
2022-11-29T08:37:19.484Z,26.25
2022-11-29T08:39:45.999Z,28.60
2022-11-29T08:42:12.574Z,22.83
2022-11-29T08:44:39.123Z,28.00
2022-11-29T08:47:24.152Z,25.27
2022-11-29T08:50:02.513Z,13.05
2022-11-29T08:52:56.754Z,24.75
2022-11-29T08:55:26.520Z,24.10
2022-11-29T08:58:00.035Z,28.23
2022-11-29T09:00:26.539Z,18.58
2022-11-29T09:02:53.006Z,22.60
2022-11-29T09:05:19.680Z,16.38
2022-11-29T09:07:46.952Z,27.98
2022-11-29T09:10:13.630Z,26.48
2022-11-29T09:12:40.900Z,17.98
2022-11-29T09:15:10.123Z,21.00
2022-11-29T09:17:36.749Z,23.65
2022-11-29T09:20:04.568Z,11.80
2022-11-29T09:22:31.534Z,23.67
2022-11-29T09:24:58.107Z,19.88
2022-11-29T09:27:24.744Z,23.90
2022-11-29T09:29:51.236Z,20.88
2022-11-29T09:32:17.742Z,14.50
2022-11-29T09:34:44.616Z,23.98
2022-11-29T09:37:11.349Z,13.88
2022-11-29T09:39:38.288Z,22.90
2022-11-29T09:42:22.895Z,20.02
2022-11-29T09:45:02.577Z,17.85
2022-11-29T09:48:04.726Z,24.95
2022-11-29T09:50:35.472Z,22.38
2022-11-29T09:53:43.932Z,18.75
2022-11-29T09:56:44.908Z,19.67
2022-11-29T09:59:42.290Z,21.92
2022-11-29T10:02:31.834Z,20.80
2022-11-29T10:05:12.048Z,16.98
2022-11-29T10:07:46.115Z,13.93
2022-11-29T10:10:26.017Z,14.65
2022-11-29T10:13:00.404Z,16.25
2022-11-29T10:15:34.263Z,11.02
2022-11-29T10:18:16.966Z,12.73
2022-11-29T10:20:49.004Z,20.63
2022-11-29T10:23:24.146Z,13.73
2022-11-29T10:25:53.549Z,14.88
2022-11-29T10:28:23.986Z,13.25
2022-11-29T10:30:54.679Z,20.98
2022-11-29T10:33:29.927Z,23.52
2022-11-29T10:35:59.249Z,14.70
2022-11-29T10:38:31.253Z,15.40
2022-11-29T10:41:04.831Z,17.70
2022-11-29T10:43:31.536Z,19.45
2022-11-29T10:45:58.796Z,21.48
2022-11-29T10:48:28.967Z,19.48
2022-11-29T10:50:55.711Z,20.15
2022-11-29T10:53:26.897Z,16.17
2022-11-29T10:55:53.586Z,20.38
2022-11-29T10:58:28.420Z,18.67
2022-11-29T11:01:06.969Z,17.70
2022-11-29T11:04:04.387Z,19.42
2022-11-29T11:06:51.521Z,22.52
2022-11-29T11:09:40.324Z,21.92
2022-11-29T11:12:18.957Z,15.57
2022-11-29T11:14:47.107Z,20.15
2022-11-29T11:17:26.260Z,20.88
2022-11-29T11:20:04.606Z,26.23
2022-11-29T11:22:33.690Z,22.05
2022-11-29T11:25:04.732Z,20.50
2022-11-29T11:27:35.160Z,19.83
2022-11-29T11:30:03.738Z,24.33
2022-11-29T11:32:30.398Z,27.60
2022-11-29T11:35:00.460Z,22.92
2022-11-29T11:37:32.516Z,25.95
2022-11-29T11:40:26.451Z,26.02
2022-11-29T11:42:53.063Z,22.67
2022-11-29T11:45:25.647Z,23.33
2022-11-29T11:47:58.163Z,19.42
2022-11-29T11:50:29.643Z,22.33
2022-11-29T11:53:00.677Z,17.95
2022-11-29T11:55:40.565Z,22.80
2022-11-29T11:58:13.168Z,16.60
2022-11-29T12:01:07.136Z,18.88
2022-11-29T12:03:50.051Z,19.85
2022-11-29T12:06:38.314Z,21.50
2022-11-29T12:09:20.180Z,20.58
2022-11-29T12:14:49.969Z,18.65
2022-11-29T12:17:52.852Z,21.52
2022-11-29T12:20:22.229Z,20.88
2022-11-29T12:23:13.801Z,20.70
2022-11-29T12:25:44.702Z,20.67
2022-11-29T12:28:18.711Z,21.17
2022-11-29T12:31:06.939Z,23.55
2022-11-29T12:33:52.251Z,23.15
2022-11-29T12:36:37.563Z,21.05
2022-11-29T12:39:32.425Z,26.25
2022-11-29T12:42:09.414Z,22.40
2022-11-29T12:45:23.247Z,27.15
2022-11-29T12:47:55.855Z,26.40
2022-11-29T12:50:31.333Z,25.60
2022-11-29T12:53:27.652Z,29.33
2022-11-29T12:56:03.638Z,24.55
2022-11-29T12:58:45.999Z,25.33
2022-11-29T13:01:33.227Z,22.40
2022-11-29T13:04:17.984Z,26.38
2022-11-29T13:06:49.444Z,21.60
2022-11-29T13:09:35.870Z,28.65
2022-11-29T13:12:13.222Z,25.88
2022-11-29T13:14:54.331Z,28.50
2022-11-29T13:17:32.762Z,23.77
2022-11-29T13:20:19.684Z,28.30
2022-11-29T13:23:04.360Z,17.98
2022-11-29T13:25:40.498Z,24.63
2022-11-29T13:28:30.302Z,28.55
2022-11-29T13:31:01.643Z,30.23
2022-11-29T13:33:36.787Z,26.98
2022-11-29T13:36:14.581Z,16.08
2022-11-29T13:38:45.861Z,28.40
2022-11-29T13:41:35.044Z,27.65
2022-11-29T13:44:20.550Z,27.00
2022-11-29T13:46:58.093Z,24.45
2022-11-29T13:49:49.498Z,15.38
2022-11-29T13:52:39.504Z,32.17
2022-11-29T13:55:12.189Z,29.33
2022-11-29T14:00:44.600Z,33.53
2022-11-29T14:03:23.433Z,34.58
2022-11-29T14:06:02.235Z,28.05
2022-11-29T14:08:37.904Z,24.85
2022-11-29T14:11:15.457Z,32.95
2022-11-29T14:13:41.934Z,31.00
2022-11-29T14:16:24.146Z,38.13
2022-11-29T14:19:09.919Z,30.70
2022-11-29T14:21:56.873Z,28.77
2022-11-29T14:24:32.551Z,18.08
2022-11-29T14:27:19.279Z,32.58
2022-11-29T14:29:48.893Z,36.15
2022-11-29T14:32:52.801Z,36.35
2022-11-29T14:35:24.312Z,24.60
2022-11-29T14:38:19.227Z,15.57
2022-11-29T14:40:51.747Z,25.00
2022-11-29T14:43:50.766Z,32.28
2022-11-29T14:46:17.260Z,27.05
2022-11-29T14:49:36.181Z,23.02
2022-11-29T14:55:17.030Z,17.33
2022-11-29T14:58:05.868Z,32.33
2022-11-29T15:00:47.592Z,32.28
2022-11-29T15:03:21.291Z,24.08
2022-11-29T15:06:06.152Z,19.95
2022-11-29T15:08:54.101Z,30.00
2022-11-29T15:11:32.871Z,24.88
2022-11-29T15:14:04.295Z,33.13
2022-11-29T15:16:58.372Z,15.88
2022-11-29T15:19:45.102Z,30.50
2022-11-29T15:22:19.120Z,18.15
2022-11-29T15:24:56.851Z,25.60
2022-11-29T15:27:24.175Z,16.55
2022-11-29T15:29:52.315Z,25.88
2022-11-29T15:32:25.634Z,27.20
2022-11-29T15:34:55.347Z,29.42
2022-11-29T15:37:31.027Z,32.45
2022-11-29T15:40:27.640Z,25.15
2022-11-29T15:43:02.271Z,30.80
2022-11-29T15:45:35.341Z,31.73
2022-11-29T15:48:25.135Z,19.52
2022-11-29T15:51:15.983Z,29.48
2022-11-29T15:54:11.717Z,31.02
2022-11-29T15:56:55.708Z,23.52
2022-11-29T15:59:28.263Z,31.30
2022-11-29T16:01:57.519Z,35.05
2022-11-29T16:04:24.558Z,38.58
2022-11-29T16:06:51.894Z,37.40
2022-11-29T16:09:25.134Z,29.23
2022-11-29T16:11:51.836Z,16.45
2022-11-29T16:14:25.938Z,31.67
2022-11-29T16:16:54.560Z,38.08
2022-11-29T16:19:33.257Z,21.45
2022-11-29T16:22:13.165Z,26.67
2022-11-29T16:24:50.771Z,25.52
2022-11-29T16:27:19.681Z,31.58
2022-11-29T16:29:47.565Z,34.75
2022-11-29T16:32:36.271Z,31.63
2022-11-29T16:35:18.874Z,37.55
2022-11-29T16:37:46.688Z,36.42
2022-11-29T16:40:22.400Z,36.00
2022-11-29T16:45:43.783Z,29.48
2022-11-29T16:48:22.480Z,35.58
2022-11-29T16:51:11.135Z,35.70
2022-11-29T16:53:42.814Z,35.17
2022-11-29T16:56:14.942Z,39.15
2022-11-29T16:59:17.332Z,39.80
2022-11-29T17:01:31.160Z,29.05
2022-11-29T17:04:00.064Z,35.85
2022-11-29T17:06:28.633Z,33.72
2022-11-29T17:08:57.513Z,41.08
2022-11-29T17:11:24.329Z,42.47
2022-11-29T17:13:51.731Z,38.30
2022-11-29T17:16:23.385Z,37.80
2022-11-29T17:18:52.650Z,24.10
2022-11-29T17:21:21.379Z,38.38
2022-11-29T17:23:48.126Z,31.60
2022-11-29T17:26:15.513Z,42.13
2022-11-29T17:28:43.859Z,37.42
2022-11-29T17:31:16.770Z,41.70
2022-11-29T17:33:43.800Z,39.85
2022-11-29T17:36:15.176Z,39.40
2022-11-29T17:38:42.860Z,35.20
2022-11-29T17:41:11.690Z,40.65
2022-11-29T17:43:38.722Z,35.63
2022-11-29T17:46:20.550Z,42.03
2022-11-29T17:51:43.643Z,22.30
2022-11-29T17:54:02.984Z,40.17
2022-11-29T17:56:29.932Z,39.20
2022-11-29T17:58:59.226Z,41.78
2022-11-29T18:01:28.801Z,41.47
2022-11-29T18:03:58.340Z,39.15
2022-11-29T18:08:57.645Z,39.03
2022-11-29T18:11:41.655Z,24.70
2022-11-29T18:14:13.991Z,38.75
2022-11-29T18:16:41.027Z,39.58
2022-11-29T18:19:11.214Z,41.92
2022-11-29T18:21:38.227Z,29.25
2022-11-29T18:24:06.290Z,44.53
2022-11-29T18:26:34.586Z,35.47
2022-11-29T18:29:01.197Z,42.35
2022-11-29T18:31:30.242Z,40.45
2022-11-29T18:33:59.648Z,36.22
2022-11-29T18:36:31.261Z,42.92
2022-11-29T18:39:02.890Z,38.97
2022-11-29T18:41:30.714Z,35.67
2022-11-29T18:44:00.527Z,43.75
2022-11-29T18:46:32.301Z,42.00
2022-11-29T18:49:01.366Z,38.88
2022-11-29T18:51:29.573Z,33.05
2022-11-29T18:53:57.254Z,35.03
2022-11-29T18:56:25.916Z,35.13
2022-11-29T18:58:58.498Z,38.13
2022-11-29T19:01:28.261Z,26.77
2022-11-29T19:03:57.141Z,33.90
2022-11-29T19:06:26.770Z,36.08
2022-11-29T19:08:54.715Z,39.85
2022-11-29T19:11:23.236Z,41.15
2022-11-29T19:13:56.569Z,40.15
2022-11-29T19:16:24.720Z,39.50
2022-11-29T19:18:56.341Z,47.25
2022-11-29T19:21:24.676Z,35.50
2022-11-29T19:23:56.534Z,41.70
2022-11-29T19:26:26.696Z,37.22
2022-11-29T19:28:54.134Z,37.10
2022-11-29T19:31:26.951Z,42.85
2022-11-29T19:33:54.639Z,41.00
2022-11-29T19:36:25.378Z,33.63
2022-11-29T19:38:54.135Z,35.05
2022-11-29T19:41:23.911Z,39.95
2022-11-29T19:46:23.656Z,40.15
2022-11-29T19:48:54.728Z,33.08
2022-11-29T19:51:22.769Z,43.88
2022-11-29T19:53:53.230Z,42.72
2022-11-29T19:56:23.755Z,31.05
2022-11-29T19:58:50.882Z,30.83
2022-11-29T20:01:35.936Z,36.38
2022-11-29T20:04:06.523Z,34.00
2022-11-29T20:06:33.061Z,37.65
2022-11-29T20:08:59.681Z,46.78
2022-11-29T20:11:27.167Z,31.38
2022-11-29T20:13:57.348Z,40.95
2022-11-29T20:16:25.167Z,33.03
2022-11-29T20:18:52.956Z,27.80
2022-11-29T20:21:25.223Z,50.70
2022-11-29T20:24:04.687Z,38.45
2022-11-29T20:26:34.474Z,41.97
2022-11-29T20:29:02.182Z,41.35
2022-11-29T20:31:33.165Z,41.67
2022-11-29T20:34:00.570Z,40.50
2022-11-29T20:36:35.988Z,36.33
2022-11-29T20:39:02.496Z,41.58
2022-11-29T20:41:56.014Z,38.72
2022-11-29T20:44:37.941Z,25.13
2022-11-29T20:47:19.621Z,42.88
2022-11-29T20:49:47.565Z,40.63
2022-11-29T20:53:04.101Z,43.67
2022-11-29T20:55:30.702Z,33.15
2022-11-29T20:57:57.354Z,37.75
2022-11-29T21:00:24.111Z,36.65
2022-11-29T21:02:50.614Z,44.47
2022-11-29T21:05:17.352Z,34.75
2022-11-29T21:07:45.727Z,43.00
2022-11-29T21:10:15.342Z,32.58
2022-11-29T21:15:11.059Z,38.40
2022-11-29T21:17:38.047Z,42.40
2022-11-29T21:20:05.486Z,41.50
2022-11-29T21:22:53.227Z,25.02
2022-11-29T21:25:41.079Z,42.03
2022-11-29T21:28:15.859Z,40.78
2022-11-29T21:30:43.534Z,42.53
2022-11-29T21:33:11.231Z,43.15
2022-11-29T21:35:39.883Z,41.85
2022-11-29T21:38:12.896Z,42.20
2022-11-29T21:40:39.567Z,40.75
2022-11-29T21:43:06.079Z,36.35
2022-11-29T21:45:32.688Z,34.85
2022-11-29T21:48:02.427Z,40.47
2022-11-29T21:50:28.983Z,36.78
2022-11-29T21:52:55.504Z,35.05
2022-11-29T21:55:22.106Z,26.35
2022-11-29T21:57:48.699Z,21.63
2022-11-29T22:00:15.692Z,37.05
2022-11-29T22:02:42.341Z,40.17
2022-11-29T22:05:09.669Z,38.33
2022-11-29T22:07:36.472Z,34.88
2022-11-29T22:10:09.960Z,42.05
2022-11-29T22:12:38.304Z,40.78
2022-11-29T22:15:05.369Z,39.90
2022-11-29T22:17:31.823Z,39.10
2022-11-29T22:19:58.446Z,35.17
2022-11-29T22:22:28.214Z,35.58
2022-11-29T22:24:54.947Z,34.38
2022-11-29T22:27:21.440Z,37.35
2022-11-29T22:29:47.971Z,40.20
2022-11-29T22:32:14.691Z,43.45
2022-11-29T22:34:41.266Z,39.10
2022-11-29T22:37:07.769Z,37.63
2022-11-29T22:39:34.242Z,38.22
2022-11-29T22:42:00.790Z,29.77
2022-11-29T22:44:27.278Z,39.65
2022-11-29T22:46:54.042Z,38.58
2022-11-29T22:49:20.632Z,29.75
2022-11-29T22:51:47.225Z,36.10
2022-11-29T22:54:16.357Z,35.53
2022-11-29T22:56:44.728Z,36.05
2022-11-29T22:59:11.258Z,32.40
2022-11-29T23:01:39.938Z,32.33
2022-11-29T23:04:08.198Z,35.00
2022-11-29T23:06:37.982Z,34.67
2022-11-29T23:09:15.793Z,24.20
2022-11-29T23:11:46.553Z,30.73
2022-11-29T23:14:13.554Z,29.05
2022-11-29T23:16:40.336Z,39.15
2022-11-29T23:19:06.922Z,27.58
2022-11-29T23:21:36.214Z,34.80
2022-11-29T23:24:03.221Z,30.80
2022-11-29T23:26:36.340Z,23.27
2022-11-29T23:29:04.479Z,28.63
2022-11-29T23:31:31.664Z,36.03
2022-11-29T23:33:58.220Z,32.40
2022-11-29T23:36:24.965Z,15.75
2022-11-29T23:38:51.590Z,28.27
2022-11-29T23:41:18.398Z,31.13
2022-11-29T23:43:44.962Z,32.22
2022-11-29T23:46:17.529Z,35.00
2022-11-29T23:48:44.553Z,37.28
2022-11-29T23:51:11.847Z,38.65
2022-11-29T23:53:39.132Z,36.05
2022-11-29T23:56:10.317Z,24.00
2022-11-29T23:58:37.989Z,34.20
